Station SKXA2 - Skagway MXAK, AK Image indicating link to RSS feed of recent meteorological observations for station SKXA2


Conditions at SKXA2 as of
(9:03 am AKDT)
1703 GMT on 05/28/2024:
     

Click on the graph icon in the table below to see a time series plot of the last five days of that observation.

5-day plot - Wind Direction Wind Direction (WDIR): S ( 170 deg true )
5-day plot - Wind Speed Wind Speed (WSPD): 9 kts
5-day plot - Wind Gust Wind Gust (GST): 11 kts
5-day plot - Air Temperature Air Temperature (ATMP): 49.5 °F
5-day plot - Dew Point Dew Point (DEWP): 41.0 °F
5-day plot - Wind Chill Wind Chill (CHILL): 45.3 °F
5-day plot - Wind Speed at 10 Meters Wind Speed at 10 meters (WSPD10M): 10 kts
5-day plot - Wind Speed at 20 Meters Wind Speed at 20 meters (WSPD20M): 10 kts
5-day plot -  Wind Speed, Wind Gust and Atmospheric Pressure Combined plot of Wind Speed, Gust, and Air Pressure
Previous observations
TIME
(AKDT)
5-day plot - Wind Direction
WDIR
 
5-day plot - Wind Speed
WSPD
kts
5-day plot - Wind Gust
GST
kts
5-day plot - Wave Height
WVHT
ft
5-day plot - Dominant Wave Period
DPD
sec
5-day plot - Average Wave Period
APD
sec
5-day plot - Mean Wave Direction
MWD
 
5-day plot - Atmospheric Pressure
PRES
in
5-day plot - Pressure Tendency
PTDY
in
5-day plot - Air Temperature
ATMP
°F
5-day plot - Water Temperature
WTMP
°F
5-day plot - Dew Point
DEWP
°F
5-day plot - Salinity
SAL
psu
5-day plot - Visibility
VIS
nmi
5-day plot - Tide (above MLLW)
TIDE
ft
2024-05-28 08:53 am S 8 11------ 50.0- 39.9---
2024-05-28 08:43 am S 8 11------ 50.2- 39.4---
2024-05-28 08:33 am S 9 11------ 49.6- 39.9---
2024-05-28 08:23 am S 9 12------ 49.3- 40.8---
2024-05-28 08:13 am S 8 10------ 49.5- 40.8---
2024-05-28 08:03 am S 7 10------ 49.5- 40.8---
2024-05-28 07:53 am S 7 9------ 49.1- 41.0---
2024-05-28 07:43 am S 7 11------ 49.1- 40.8---
2024-05-28 07:33 am S 7 12------ 49.1- 40.6---
2024-05-28 07:23 am S 4 11------ 48.9- 41.5---
2024-05-28 07:13 amNNE 2 3------ 48.7- 42.1---
2024-05-28 07:03 am N 2 4------ 48.4- 42.1---
2024-05-28 06:52 am N 3 5------ 48.2- 42.1---
2024-05-28 06:43 am N 3 5------ 48.2- 41.9---
2024-05-28 06:32 amNNW 3 7------ 48.0- 41.9---
2024-05-28 06:23 am N 4 8------ 47.1- 42.4---
2024-05-28 06:12 am N 2 6------ 46.9- 42.1---
2024-05-28 06:03 amNNW 4 5------ 46.6- 42.3---
2024-05-28 05:52 am N 4 8------ 46.9- 41.9---
2024-05-28 05:42 am N 3 6------ 46.9- 41.5---
2024-05-28 05:32 am N 3 5------ 47.3- 41.4---
2024-05-28 05:23 am NE 2 4------ 47.5- 41.4---
2024-05-28 05:13 amESE 2 6------ 48.0- 41.0---
2024-05-28 05:03 amNNE 3 7------ 47.8- 40.6---
2024-05-28 04:52 am N 2 6------ 47.7- 40.8---
2024-05-28 04:43 am N 3 5------ 47.7- 40.5---
2024-05-28 04:32 am N 2 8------ 47.7- 40.5---
2024-05-28 04:22 amNNE 3 7------ 48.2- 40.5---
2024-05-28 04:02 am N 4 9------ 47.5- 40.6---
2024-05-28 03:52 am N 3 9------ 48.2- 40.6---
2024-05-28 03:43 amENE 4 8------ 48.4- 40.1---
2024-05-28 03:33 am N 4 7------ 47.1- 41.4---
2024-05-28 03:22 am N 5 7------ 47.5- 41.5---
2024-05-28 03:13 am NE 3 9------ 48.0- 41.2---
2024-05-28 03:02 am NE 3 9------ 47.8- 41.5---
2024-05-28 02:52 am N 5 7------ 48.2- 41.5---
2024-05-28 02:43 am N 5 8------ 48.4- 41.4---
2024-05-28 02:33 am N 3 7------ 48.7- 41.5---
2024-05-28 02:23 am SE 4 7------ 49.8- 40.5---
2024-05-28 02:13 am S 5 9------ 49.3- 40.6---
2024-05-28 02:03 am N 6 11------ 47.8- 41.9---
2024-05-28 01:52 am N 6 11------ 48.2- 41.9---
2024-05-28 01:42 am N 4 7------ 48.7- 40.8---
2024-05-28 01:33 amNNE 5 8------ 48.6- 40.3---
2024-05-28 01:23 amNNE 5 8------ 48.2- 41.2---
2024-05-28 01:13 am N 6 8------ 48.4- 41.4---
2024-05-28 01:03 am N 5 8------ 48.4- 41.9---
2024-05-28 12:53 amNNE 4 8------ 48.9- 41.0---
2024-05-28 12:43 am N 3 7------ 48.6- 41.5---
2024-05-28 12:32 am N 5 8------ 48.9- 41.0---
2024-05-28 12:23 am N 3 7------ 50.2- 40.1---
2024-05-28 12:13 am SE 7 13------ 50.5- 39.9---
2024-05-28 12:03 am SE 4 13------ 50.4- 40.1---
2024-05-27 11:53 pm NE 3 9------ 50.0- 40.6---
2024-05-27 11:43 pmESE 5 9------ 51.1- 39.6---
2024-05-27 11:32 pm SE 6 10------ 51.6- 38.8---
2024-05-27 11:22 pm SE 6 11------ 51.6- 38.8---
2024-05-27 11:13 pmSSE 8 12------ 51.8- 38.8---
2024-05-27 11:02 pmSSE 8 12------ 51.6- 38.7---
2024-05-27 10:53 pmSSE 9 14------ 51.8- 39.2---
2024-05-27 10:43 pmSSE 7 12------ 52.2- 38.8---
2024-05-27 10:33 pmSSE 10 15------ 52.3- 38.7---
2024-05-27 10:23 pmSSE 8 13------ 52.3- 38.8---
2024-05-27 10:12 pm SE 5 10------ 52.3- 38.5---
2024-05-27 10:02 pmSSE 6 11------ 52.7- 38.1---
2024-05-27 09:53 pmSSE 6 11------ 52.7- 38.3---
2024-05-27 09:42 pmSSE 9 13------ 52.9- 38.3---
2024-05-27 09:33 pmSSE 11 14------ 52.9- 39.0---
2024-05-27 09:23 pmSSE 10 15------ 53.1- 39.2---
2024-05-27 09:13 pmSSE 12 16------ 52.9- 39.7---
2024-05-27 09:03 pmSSE 12 17------ 53.1- 39.9---
2024-05-27 08:53 pmSSE 14 18------ 53.2- 39.9---
2024-05-27 08:43 pmSSE 14 20------ 53.2- 39.7---
2024-05-27 08:33 pmSSE 16 22------ 53.4- 39.6---
2024-05-27 08:23 pmSSE 15 20------ 53.6- 39.2---
2024-05-27 08:13 pmSSE 14 18------ 53.8- 39.0---
2024-05-27 08:03 pmSSE 16 22------ 54.0- 38.7---
2024-05-27 07:53 pmSSE 14 22------ 54.0- 39.4---
2024-05-27 07:42 pmSSE 15 25------ 54.1- 39.4---
2024-05-27 07:33 pmSSE 18 23------ 54.1- 39.0---
2024-05-27 07:22 pmSSE 18 22------ 53.8- 39.4---
2024-05-27 07:12 pmSSE 18 23------ 54.1- 38.8---
2024-05-27 07:03 pmSSE 19 26------ 54.9- 37.6---
2024-05-27 06:52 pmSSE 17 23------ 55.2- 37.6---
2024-05-27 06:43 pmSSE 17 22------ 55.2- 37.6---
2024-05-27 06:33 pm S 17 21------ 55.0- 37.8---
2024-05-27 06:22 pm S 17 22------ 55.2- 37.6---
2024-05-27 06:13 pmSSE 16 22------ 55.4- 37.9---
2024-05-27 06:03 pmSSE 15 21------ 55.8- 37.6---
2024-05-27 05:53 pmSSE 17 22------ 55.4- 36.7---
2024-05-27 05:42 pmSSE 16 22------ 55.6- 36.3---
2024-05-27 05:33 pmSSE 18 22------ 55.2- 36.7---
2024-05-27 05:23 pmSSE 15 18------ 55.8- 35.8---
2024-05-27 05:13 pmSSE 17 22------ 55.8- 35.6---
2024-05-27 05:03 pmSSE 16 20------ 55.8- 35.4---
2024-05-27 04:52 pmSSE 13 19------ 55.8- 35.2---
2024-05-27 04:43 pmSSE 12 15------ 54.9- 37.9---
2024-05-27 04:32 pm S 11 13------ 54.5- 39.0---
2024-05-27 04:22 pm S 12 15------ 55.0- 36.9---
2024-05-27 04:12 pmSSE 14 17------ 55.6- 35.1---
2024-05-27 03:53 pm S 14 17------ 54.7- 36.0---
2024-05-27 03:42 pm S 14 16------ 54.5- 36.5---
2024-05-27 03:33 pm S 14 16------ 54.0- 37.2---
2024-05-27 03:23 pm S 14 16------ 54.1- 37.2---
2024-05-27 03:13 pm S 15 18------ 53.8- 37.4---
2024-05-27 03:02 pm S 16 20------ 53.4- 37.6---
2024-05-27 02:52 pm S 16 20------ 53.4- 37.8---
2024-05-27 02:44 pm S 15 21------ 53.4- 38.3---
2024-05-27 02:33 pm S 15 19------ 53.2- 38.5---
2024-05-27 02:23 pm S 16 20------ 53.4- 37.8---
2024-05-27 02:13 pm S 16 20------ 53.2- 38.1---
2024-05-27 02:03 pm S 18 21------ 53.6- 36.3---
2024-05-27 01:53 pm S 18 21------ 53.6- 36.0---
2024-05-27 01:43 pm S 18 24------ 53.4- 36.5---
2024-05-27 01:33 pmSSE 20 24------ 53.2- 36.3---
2024-05-27 01:23 pmSSE 18 21------ 53.2- 36.7---
2024-05-27 01:13 pmSSE 16 21------ 53.2- 36.7---
2024-05-27 01:03 pmSSE 16 20------ 53.2- 36.5---
2024-05-27 12:52 pmSSE 17 20------ 53.1- 36.5---
2024-05-27 12:43 pmSSE 17 20------ 52.9- 36.5---
2024-05-27 12:32 pmSSE 16 21------ 52.9- 36.5---
2024-05-27 12:22 pmSSE 16 20------ 52.9- 36.5---
2024-05-27 12:12 pmSSE 15 19------ 52.7- 36.7---
2024-05-27 12:03 pmSSE 16 21------ 52.5- 36.9---
2024-05-27 11:53 amSSE 17 21------ 52.5- 37.0---
2024-05-27 11:43 amSSE 16 20------ 52.5- 37.2---
2024-05-27 11:32 amSSE 16 19------ 52.3- 37.2---
2024-05-27 11:23 amSSE 17 22------ 52.2- 37.4---
2024-05-27 11:13 amSSE 16 22------ 52.2- 37.4---
2024-05-27 11:03 amSSE 16 20------ 52.2- 37.6---
2024-05-27 10:53 amSSE 16 21------ 52.0- 37.6---
2024-05-27 10:43 amSSE 15 20------ 51.8- 38.1---
2024-05-27 10:33 amSSE 15 22------ 51.6- 38.5---
2024-05-27 10:23 amSSE 15 21------ 51.4- 38.7---
2024-05-27 10:12 am S 15 20------ 51.3- 38.8---
2024-05-27 10:02 amSSE 15 21------ 50.9- 39.4---
2024-05-27 09:53 amSSE 13 18------ 50.7- 39.6---
2024-05-27 09:43 am S 14 18------ 50.5- 40.1---
2024-05-27 09:33 am S 16 20------ 50.4- 40.1---
2024-05-27 09:23 am S 14 18------ 50.2- 40.1---
2024-05-27 09:13 am S 12 17------ 50.2- 40.5---
2024-05-27 09:03 am S 11 15------ 50.0- 41.0---
2024-05-27 08:53 am S 12 17------ 49.6- 41.2---